sensor_id;sensor_type;location;lat;lon;timestamp;P1;durP1;ratioP1;P2;durP2;ratioP2
36195;SDS011;22237;51.974;4.616;2023-04-03T00:02:20;3.10;;;0.98;;
36195;SDS011;22237;51.974;4.616;2023-04-03T00:04:46;2.40;;;1.63;;
36195;SDS011;22237;51.974;4.616;2023-04-03T00:07:11;2.08;;;1.05;;
36195;SDS011;22237;51.974;4.616;2023-04-03T00:09:37;7.13;;;0.82;;
36195;SDS011;22237;51.974;4.616;2023-04-03T00:12:02;3.58;;;1.40;;
36195;SDS011;22237;51.974;4.616;2023-04-03T00:14:27;2.97;;;1.23;;
36195;SDS011;22237;51.974;4.616;2023-04-03T00:16:53;2.13;;;0.90;;
36195;SDS011;22237;51.974;4.616;2023-04-03T00:19:19;1.27;;;0.93;;
36195;SDS011;22237;51.974;4.616;2023-04-03T00:21:45;0.77;;;0.77;;
36195;SDS011;22237;51.974;4.616;2023-04-03T00:24:10;1.55;;;1.08;;
36195;SDS011;22237;51.974;4.616;2023-04-03T00:26:35;2.42;;;1.13;;
36195;SDS011;22237;51.974;4.616;2023-04-03T00:29:01;1.25;;;1.05;;
36195;SDS011;22237;51.974;4.616;2023-04-03T00:31:26;1.33;;;1.00;;
36195;SDS011;22237;51.974;4.616;2023-04-03T00:33:51;1.00;;;0.93;;
36195;SDS011;22237;51.974;4.616;2023-04-03T00:36:16;1.83;;;1.00;;
36195;SDS011;22237;51.974;4.616;2023-04-03T00:38:41;1.10;;;1.00;;
36195;SDS011;22237;51.974;4.616;2023-04-03T00:41:07;4.35;;;1.00;;
36195;SDS011;22237;51.974;4.616;2023-04-03T00:46:35;4.47;;;1.25;;
36195;SDS011;22237;51.974;4.616;2023-04-03T00:49:00;1.27;;;0.90;;
36195;SDS011;22237;51.974;4.616;2023-04-03T00:51:26;1.33;;;1.05;;
36195;SDS011;22237;51.974;4.616;2023-04-03T00:53:55;1.52;;;1.13;;
36195;SDS011;22237;51.974;4.616;2023-04-03T00:56:23;1.45;;;1.35;;
36195;SDS011;22237;51.974;4.616;2023-04-03T00:58:59;1.35;;;1.08;;
36195;SDS011;22237;51.974;4.616;2023-04-03T01:01:27;1.90;;;1.27;;
36195;SDS011;22237;51.974;4.616;2023-04-03T01:03:52;1.65;;;1.00;;
36195;SDS011;22237;51.974;4.616;2023-04-03T01:06:20;2.58;;;1.23;;
36195;SDS011;22237;51.974;4.616;2023-04-03T01:08:47;1.83;;;1.20;;
36195;SDS011;22237;51.974;4.616;2023-04-03T01:11:13;1.02;;;0.93;;
36195;SDS011;22237;51.974;4.616;2023-04-03T01:13:38;1.20;;;0.90;;
36195;SDS011;22237;51.974;4.616;2023-04-03T01:16:05;1.23;;;1.10;;
36195;SDS011;22237;51.974;4.616;2023-04-03T01:18:31;2.83;;;1.58;;
36195;SDS011;22237;51.974;4.616;2023-04-03T01:26:02;1.30;;;1.17;;
36195;SDS011;22237;51.974;4.616;2023-04-03T01:28:34;2.05;;;1.15;;
36195;SDS011;22237;51.974;4.616;2023-04-03T01:31:18;2.83;;;1.48;;
36195;SDS011;22237;51.974;4.616;2023-04-03T01:33:44;1.27;;;1.10;;
36195;SDS011;22237;51.974;4.616;2023-04-03T01:36:10;2.75;;;1.08;;
36195;SDS011;22237;51.974;4.616;2023-04-03T01:38:35;2.33;;;1.33;;
36195;SDS011;22237;51.974;4.616;2023-04-03T01:41:00;3.25;;;1.42;;
36195;SDS011;22237;51.974;4.616;2023-04-03T01:43:26;2.17;;;1.17;;
36195;SDS011;22237;51.974;4.616;2023-04-03T01:45:51;2.67;;;1.35;;
36195;SDS011;22237;51.974;4.616;2023-04-03T01:48:19;1.13;;;1.02;;
36195;SDS011;22237;51.974;4.616;2023-04-03T01:50:44;1.65;;;1.10;;
36195;SDS011;22237;51.974;4.616;2023-04-03T01:53:09;2.60;;;1.20;;
36195;SDS011;22237;51.974;4.616;2023-04-03T01:55:35;4.63;;;1.20;;
36195;SDS011;22237;51.974;4.616;2023-04-03T01:58:00;1.23;;;1.15;;
36195;SDS011;22237;51.974;4.616;2023-04-03T02:00:25;0.98;;;0.98;;
36195;SDS011;22237;51.974;4.616;2023-04-03T02:02:51;1.65;;;1.20;;
36195;SDS011;22237;51.974;4.616;2023-04-03T02:05:17;1.25;;;1.13;;
36195;SDS011;22237;51.974;4.616;2023-04-03T02:07:42;2.38;;;1.45;;
36195;SDS011;22237;51.974;4.616;2023-04-03T02:10:07;1.85;;;1.45;;
36195;SDS011;22237;51.974;4.616;2023-04-03T02:12:32;1.27;;;1.08;;
36195;SDS011;22237;51.974;4.616;2023-04-03T02:14:58;2.25;;;1.15;;
36195;SDS011;22237;51.974;4.616;2023-04-03T02:17:23;2.08;;;1.52;;
36195;SDS011;22237;51.974;4.616;2023-04-03T02:19:48;2.55;;;1.85;;
36195;SDS011;22237;51.974;4.616;2023-04-03T02:22:13;1.20;;;1.10;;
36195;SDS011;22237;51.974;4.616;2023-04-03T02:24:39;3.38;;;1.45;;
36195;SDS011;22237;51.974;4.616;2023-04-03T02:27:05;1.50;;;1.20;;
36195;SDS011;22237;51.974;4.616;2023-04-03T02:29:30;1.45;;;1.00;;
36195;SDS011;22237;51.974;4.616;2023-04-03T02:31:55;1.48;;;1.05;;
36195;SDS011;22237;51.974;4.616;2023-04-03T02:34:21;1.23;;;1.05;;
36195;SDS011;22237;51.974;4.616;2023-04-03T02:36:46;3.40;;;1.42;;
36195;SDS011;22237;51.974;4.616;2023-04-03T02:39:11;2.10;;;1.20;;
36195;SDS011;22237;51.974;4.616;2023-04-03T02:41:36;1.08;;;0.95;;
36195;SDS011;22237;51.974;4.616;2023-04-03T02:44:02;1.92;;;1.40;;
36195;SDS011;22237;51.974;4.616;2023-04-03T02:46:28;1.02;;;0.90;;
36195;SDS011;22237;51.974;4.616;2023-04-03T02:48:53;6.07;;;1.25;;
36195;SDS011;22237;51.974;4.616;2023-04-03T02:51:18;1.73;;;1.30;;
36195;SDS011;22237;51.974;4.616;2023-04-03T02:53:44;3.22;;;1.13;;
36195;SDS011;22237;51.974;4.616;2023-04-03T02:56:09;3.47;;;1.10;;
36195;SDS011;22237;51.974;4.616;2023-04-03T02:58:34;1.27;;;1.10;;
36195;SDS011;22237;51.974;4.616;2023-04-03T03:01:00;1.65;;;1.38;;
36195;SDS011;22237;51.974;4.616;2023-04-03T03:03:26;1.58;;;1.40;;
36195;SDS011;22237;51.974;4.616;2023-04-03T03:06:00;1.52;;;1.00;;
36195;SDS011;22237;51.974;4.616;2023-04-03T03:08:25;1.67;;;1.42;;
36195;SDS011;22237;51.974;4.616;2023-04-03T03:10:50;1.63;;;1.30;;
36195;SDS011;22237;51.974;4.616;2023-04-03T03:13:16;1.70;;;1.33;;
36195;SDS011;22237;51.974;4.616;2023-04-03T03:15:41;2.72;;;1.52;;
36195;SDS011;22237;51.974;4.616;2023-04-03T03:18:06;4.22;;;1.60;;
36195;SDS011;22237;51.974;4.616;2023-04-03T03:20:31;2.40;;;1.75;;
36195;SDS011;22237;51.974;4.616;2023-04-03T03:22:57;1.33;;;1.23;;
36195;SDS011;22237;51.974;4.616;2023-04-03T03:25:22;10.85;;;1.55;;
36195;SDS011;22237;51.974;4.616;2023-04-03T03:27:47;4.47;;;1.65;;
36195;SDS011;22237;51.974;4.616;2023-04-03T03:30:12;2.47;;;1.52;;
36195;SDS011;22237;51.974;4.616;2023-04-03T03:32:38;2.03;;;1.45;;
36195;SDS011;22237;51.974;4.616;2023-04-03T03:35:03;2.17;;;1.40;;
36195;SDS011;22237;51.974;4.616;2023-04-03T03:37:28;2.72;;;1.42;;
36195;SDS011;22237;51.974;4.616;2023-04-03T03:39:53;3.08;;;1.10;;
36195;SDS011;22237;51.974;4.616;2023-04-03T03:42:19;0.90;;;0.90;;
36195;SDS011;22237;51.974;4.616;2023-04-03T03:44:44;1.70;;;1.23;;
36195;SDS011;22237;51.974;4.616;2023-04-03T03:47:09;3.63;;;1.23;;
36195;SDS011;22237;51.974;4.616;2023-04-03T03:49:35;3.15;;;1.38;;
36195;SDS011;22237;51.974;4.616;2023-04-03T03:52:00;3.05;;;1.77;;
36195;SDS011;22237;51.974;4.616;2023-04-03T03:54:26;2.88;;;1.67;;
36195;SDS011;22237;51.974;4.616;2023-04-03T03:56:51;8.77;;;1.75;;
36195;SDS011;22237;51.974;4.616;2023-04-03T03:59:16;1.30;;;1.20;;
36195;SDS011;22237;51.974;4.616;2023-04-03T04:01:41;2.20;;;1.17;;
36195;SDS011;22237;51.974;4.616;2023-04-03T04:04:07;3.83;;;1.70;;
36195;SDS011;22237;51.974;4.616;2023-04-03T04:06:32;2.20;;;1.60;;
36195;SDS011;22237;51.974;4.616;2023-04-03T04:08:57;4.55;;;1.83;;
36195;SDS011;22237;51.974;4.616;2023-04-03T04:11:22;1.27;;;1.17;;
36195;SDS011;22237;51.974;4.616;2023-04-03T04:13:47;1.40;;;1.10;;
36195;SDS011;22237;51.974;4.616;2023-04-03T04:16:13;1.98;;;1.25;;
36195;SDS011;22237;51.974;4.616;2023-04-03T04:18:38;2.50;;;1.33;;
36195;SDS011;22237;51.974;4.616;2023-04-03T04:21:03;2.70;;;1.23;;
36195;SDS011;22237;51.974;4.616;2023-04-03T04:23:28;1.33;;;1.23;;
36195;SDS011;22237;51.974;4.616;2023-04-03T04:25:54;2.55;;;1.60;;
36195;SDS011;22237;51.974;4.616;2023-04-03T04:28:19;2.42;;;1.42;;
36195;SDS011;22237;51.974;4.616;2023-04-03T04:30:44;1.48;;;1.35;;
36195;SDS011;22237;51.974;4.616;2023-04-03T04:33:10;1.80;;;1.40;;
36195;SDS011;22237;51.974;4.616;2023-04-03T04:35:35;6.97;;;1.52;;
36195;SDS011;22237;51.974;4.616;2023-04-03T04:38:00;3.83;;;1.23;;
36195;SDS011;22237;51.974;4.616;2023-04-03T04:40:26;3.60;;;1.35;;
36195;SDS011;22237;51.974;4.616;2023-04-03T04:42:52;1.70;;;1.38;;
36195;SDS011;22237;51.974;4.616;2023-04-03T04:45:17;5.80;;;1.50;;
36195;SDS011;22237;51.974;4.616;2023-04-03T04:47:42;1.95;;;1.40;;
36195;SDS011;22237;51.974;4.616;2023-04-03T04:50:07;3.00;;;1.85;;
36195;SDS011;22237;51.974;4.616;2023-04-03T04:52:33;8.27;;;1.70;;
36195;SDS011;22237;51.974;4.616;2023-04-03T04:54:58;1.67;;;1.52;;
36195;SDS011;22237;51.974;4.616;2023-04-03T04:57:23;3.78;;;1.30;;
36195;SDS011;22237;51.974;4.616;2023-04-03T04:59:48;1.80;;;1.40;;
36195;SDS011;22237;51.974;4.616;2023-04-03T05:02:14;9.30;;;1.85;;
36195;SDS011;22237;51.974;4.616;2023-04-03T05:04:39;3.08;;;1.95;;
36195;SDS011;22237;51.974;4.616;2023-04-03T05:07:04;4.05;;;1.83;;
36195;SDS011;22237;51.974;4.616;2023-04-03T05:09:30;1.60;;;1.30;;
36195;SDS011;22237;51.974;4.616;2023-04-03T05:11:55;6.30;;;1.48;;
36195;SDS011;22237;51.974;4.616;2023-04-03T05:14:21;2.35;;;1.52;;
36195;SDS011;22237;51.974;4.616;2023-04-03T05:16:46;1.10;;;1.08;;
36195;SDS011;22237;51.974;4.616;2023-04-03T05:19:12;2.35;;;1.60;;
36195;SDS011;22237;51.974;4.616;2023-04-03T05:21:37;3.60;;;1.45;;
36195;SDS011;22237;51.974;4.616;2023-04-03T05:24:02;8.38;;;2.30;;
36195;SDS011;22237;51.974;4.616;2023-04-03T05:26:29;5.88;;;1.52;;
36195;SDS011;22237;51.974;4.616;2023-04-03T05:28:54;3.83;;;1.70;;
36195;SDS011;22237;51.974;4.616;2023-04-03T05:31:19;1.50;;;1.40;;
36195;SDS011;22237;51.974;4.616;2023-04-03T05:33:45;3.08;;;1.48;;
36195;SDS011;22237;51.974;4.616;2023-04-03T05:36:11;3.80;;;1.55;;
36195;SDS011;22237;51.974;4.616;2023-04-03T05:38:36;1.63;;;1.30;;
36195;SDS011;22237;51.974;4.616;2023-04-03T05:41:02;3.92;;;1.65;;
36195;SDS011;22237;51.974;4.616;2023-04-03T05:43:27;2.97;;;1.30;;
36195;SDS011;22237;51.974;4.616;2023-04-03T05:45:52;2.20;;;1.73;;
36195;SDS011;22237;51.974;4.616;2023-04-03T05:48:17;5.93;;;1.80;;
36195;SDS011;22237;51.974;4.616;2023-04-03T05:50:43;4.22;;;1.67;;
36195;SDS011;22237;51.974;4.616;2023-04-03T05:53:18;6.07;;;1.85;;
36195;SDS011;22237;51.974;4.616;2023-04-03T05:55:45;7.63;;;1.63;;
36195;SDS011;22237;51.974;4.616;2023-04-03T05:58:11;3.25;;;1.52;;
36195;SDS011;22237;51.974;4.616;2023-04-03T06:00:36;11.48;;;1.80;;
36195;SDS011;22237;51.974;4.616;2023-04-03T06:03:01;3.65;;;1.80;;
36195;SDS011;22237;51.974;4.616;2023-04-03T06:05:27;4.60;;;1.65;;
36195;SDS011;22237;51.974;4.616;2023-04-03T06:07:52;1.13;;;1.13;;
36195;SDS011;22237;51.974;4.616;2023-04-03T06:10:18;2.50;;;1.52;;
36195;SDS011;22237;51.974;4.616;2023-04-03T06:12:45;1.70;;;1.60;;
36195;SDS011;22237;51.974;4.616;2023-04-03T06:15:10;4.97;;;1.70;;
36195;SDS011;22237;51.974;4.616;2023-04-03T06:17:36;2.70;;;1.42;;
36195;SDS011;22237;51.974;4.616;2023-04-03T06:20:02;1.85;;;1.45;;
36195;SDS011;22237;51.974;4.616;2023-04-03T06:22:28;3.90;;;1.30;;
36195;SDS011;22237;51.974;4.616;2023-04-03T06:24:55;3.15;;;1.88;;
36195;SDS011;22237;51.974;4.616;2023-04-03T06:27:20;5.80;;;1.70;;
36195;SDS011;22237;51.974;4.616;2023-04-03T06:29:45;3.45;;;1.90;;
36195;SDS011;22237;51.974;4.616;2023-04-03T06:32:11;2.92;;;1.98;;
36195;SDS011;22237;51.974;4.616;2023-04-03T06:34:36;6.28;;;1.85;;
36195;SDS011;22237;51.974;4.616;2023-04-03T06:37:02;6.85;;;1.40;;
36195;SDS011;22237;51.974;4.616;2023-04-03T06:39:27;3.95;;;1.70;;
36195;SDS011;22237;51.974;4.616;2023-04-03T06:41:52;8.52;;;2.10;;
36195;SDS011;22237;51.974;4.616;2023-04-03T06:44:17;3.83;;;1.83;;
36195;SDS011;22237;51.974;4.616;2023-04-03T06:46:43;2.78;;;1.70;;
36195;SDS011;22237;51.974;4.616;2023-04-03T06:49:08;7.78;;;1.58;;
36195;SDS011;22237;51.974;4.616;2023-04-03T06:51:34;6.85;;;1.92;;
36195;SDS011;22237;51.974;4.616;2023-04-03T06:54:00;3.90;;;1.60;;
36195;SDS011;22237;51.974;4.616;2023-04-03T06:56:25;2.50;;;1.77;;
36195;SDS011;22237;51.974;4.616;2023-04-03T06:58:51;1.88;;;1.67;;
36195;SDS011;22237;51.974;4.616;2023-04-03T07:01:19;2.30;;;1.38;;
36195;SDS011;22237;51.974;4.616;2023-04-03T07:03:44;1.90;;;1.60;;
36195;SDS011;22237;51.974;4.616;2023-04-03T07:06:10;5.82;;;1.50;;
36195;SDS011;22237;51.974;4.616;2023-04-03T07:08:36;3.97;;;2.35;;
36195;SDS011;22237;51.974;4.616;2023-04-03T07:11:01;3.20;;;1.70;;
36195;SDS011;22237;51.974;4.616;2023-04-03T07:13:27;2.33;;;1.50;;
36195;SDS011;22237;51.974;4.616;2023-04-03T07:15:55;1.45;;;1.30;;
36195;SDS011;22237;51.974;4.616;2023-04-03T07:18:21;2.30;;;1.30;;
36195;SDS011;22237;51.974;4.616;2023-04-03T07:20:47;2.15;;;1.65;;
36195;SDS011;22237;51.974;4.616;2023-04-03T07:23:12;5.60;;;1.63;;
36195;SDS011;22237;51.974;4.616;2023-04-03T07:25:42;2.47;;;1.30;;
36195;SDS011;22237;51.974;4.616;2023-04-03T07:28:07;4.95;;;2.28;;
36195;SDS011;22237;51.974;4.616;2023-04-03T07:30:33;1.50;;;1.40;;
36195;SDS011;22237;51.974;4.616;2023-04-03T07:32:58;3.33;;;1.67;;
36195;SDS011;22237;51.974;4.616;2023-04-03T07:38:22;5.30;;;1.85;;
36195;SDS011;22237;51.974;4.616;2023-04-03T07:40:48;1.40;;;1.30;;
36195;SDS011;22237;51.974;4.616;2023-04-03T07:43:14;3.83;;;1.55;;
36195;SDS011;22237;51.974;4.616;2023-04-03T07:45:39;4.20;;;1.23;;
36195;SDS011;22237;51.974;4.616;2023-04-03T07:53:42;3.67;;;1.20;;
36195;SDS011;22237;51.974;4.616;2023-04-03T07:56:08;2.42;;;1.27;;
36195;SDS011;22237;51.974;4.616;2023-04-03T08:01:36;2.85;;;1.00;;
36195;SDS011;22237;51.974;4.616;2023-04-03T08:04:01;9.15;;;1.33;;
36195;SDS011;22237;51.974;4.616;2023-04-03T08:06:27;2.50;;;1.27;;
36195;SDS011;22237;51.974;4.616;2023-04-03T08:08:54;10.88;;;1.65;;
36195;SDS011;22237;51.974;4.616;2023-04-03T08:11:38;5.93;;;1.60;;
36195;SDS011;22237;51.974;4.616;2023-04-03T08:14:04;3.63;;;1.10;;
36195;SDS011;22237;51.974;4.616;2023-04-03T08:16:29;3.40;;;1.45;;
36195;SDS011;22237;51.974;4.616;2023-04-03T08:18:55;3.97;;;1.20;;
36195;SDS011;22237;51.974;4.616;2023-04-03T08:21:20;4.03;;;0.93;;
36195;SDS011;22237;51.974;4.616;2023-04-03T08:23:47;4.90;;;1.38;;
36195;SDS011;22237;51.974;4.616;2023-04-03T08:26:14;4.47;;;1.08;;
36195;SDS011;22237;51.974;4.616;2023-04-03T08:28:40;1.95;;;1.25;;
36195;SDS011;22237;51.974;4.616;2023-04-03T08:31:06;2.10;;;1.00;;
36195;SDS011;22237;51.974;4.616;2023-04-03T08:33:32;4.18;;;1.25;;
36195;SDS011;22237;51.974;4.616;2023-04-03T08:35:58;1.90;;;0.95;;
36195;SDS011;22237;51.974;4.616;2023-04-03T08:38:23;3.55;;;1.20;;
36195;SDS011;22237;51.974;4.616;2023-04-03T08:40:59;5.43;;;1.30;;
36195;SDS011;22237;51.974;4.616;2023-04-03T08:45:53;6.15;;;1.58;;
36195;SDS011;22237;51.974;4.616;2023-04-03T08:48:21;1.25;;;1.00;;
36195;SDS011;22237;51.974;4.616;2023-04-03T08:50:50;2.22;;;1.27;;
36195;SDS011;22237;51.974;4.616;2023-04-03T08:53:23;2.58;;;1.13;;
36195;SDS011;22237;51.974;4.616;2023-04-03T08:55:51;2.95;;;1.20;;
36195;SDS011;22237;51.974;4.616;2023-04-03T08:58:19;4.25;;;1.25;;
36195;SDS011;22237;51.974;4.616;2023-04-03T09:03:29;2.65;;;1.00;;
36195;SDS011;22237;51.974;4.616;2023-04-03T09:06:19;3.67;;;0.80;;
36195;SDS011;22237;51.974;4.616;2023-04-03T09:11:45;2.78;;;1.23;;
36195;SDS011;22237;51.974;4.616;2023-04-03T09:14:17;3.10;;;0.95;;
36195;SDS011;22237;51.974;4.616;2023-04-03T09:21:56;2.00;;;0.80;;
36195;SDS011;22237;51.974;4.616;2023-04-03T09:24:40;1.67;;;1.25;;
36195;SDS011;22237;51.974;4.616;2023-04-03T09:27:07;1.88;;;0.80;;
36195;SDS011;22237;51.974;4.616;2023-04-03T09:29:35;2.40;;;0.75;;
36195;SDS011;22237;51.974;4.616;2023-04-03T09:32:02;1.45;;;0.95;;
36195;SDS011;22237;51.974;4.616;2023-04-03T09:34:35;3.95;;;0.73;;
36195;SDS011;22237;51.974;4.616;2023-04-03T09:37:01;1.45;;;0.68;;
36195;SDS011;22237;51.974;4.616;2023-04-03T09:39:48;0.63;;;0.50;;
36195;SDS011;22237;51.974;4.616;2023-04-03T09:42:16;1.05;;;0.60;;
36195;SDS011;22237;51.974;4.616;2023-04-03T09:44:44;0.70;;;0.70;;
36195;SDS011;22237;51.974;4.616;2023-04-03T09:47:24;1.48;;;0.50;;
36195;SDS011;22237;51.974;4.616;2023-04-03T09:49:50;5.95;;;1.00;;
36195;SDS011;22237;51.974;4.616;2023-04-03T09:52:25;1.02;;;0.70;;
36195;SDS011;22237;51.974;4.616;2023-04-03T09:54:51;0.52;;;0.52;;
36195;SDS011;22237;51.974;4.616;2023-04-03T09:57:16;3.08;;;0.75;;
36195;SDS011;22237;51.974;4.616;2023-04-03T09:59:46;6.18;;;1.00;;
36195;SDS011;22237;51.974;4.616;2023-04-03T10:04:56;0.90;;;0.80;;
36195;SDS011;22237;51.974;4.616;2023-04-03T10:09:57;3.88;;;1.05;;
36195;SDS011;22237;51.974;4.616;2023-04-03T10:12:32;1.05;;;0.50;;
36195;SDS011;22237;51.974;4.616;2023-04-03T10:14:58;0.55;;;0.50;;
36195;SDS011;22237;51.974;4.616;2023-04-03T10:27:55;1.58;;;0.60;;
36195;SDS011;22237;51.974;4.616;2023-04-03T10:41:17;0.63;;;0.60;;
36195;SDS011;22237;51.974;4.616;2023-04-03T10:48:17;0.50;;;0.50;;
36195;SDS011;22237;51.974;4.616;2023-04-03T10:53:34;0.65;;;0.50;;
36195;SDS011;22237;51.974;4.616;2023-04-03T10:58:32;0.70;;;0.70;;
36195;SDS011;22237;51.974;4.616;2023-04-03T11:01:02;0.43;;;0.30;;
36195;SDS011;22237;51.974;4.616;2023-04-03T11:04:06;0.40;;;0.40;;
36195;SDS011;22237;51.974;4.616;2023-04-03T11:06:43;1.10;;;0.52;;
36195;SDS011;22237;51.974;4.616;2023-04-03T11:09:21;3.42;;;0.50;;
36195;SDS011;22237;51.974;4.616;2023-04-03T11:11:46;1.90;;;0.65;;
36195;SDS011;22237;51.974;4.616;2023-04-03T11:16:42;0.52;;;0.52;;
36195;SDS011;22237;51.974;4.616;2023-04-03T11:19:13;0.32;;;0.28;;
36195;SDS011;22237;51.974;4.616;2023-04-03T11:21:54;1.38;;;0.40;;
36195;SDS011;22237;51.974;4.616;2023-04-03T11:24:24;0.30;;;0.30;;
36195;SDS011;22237;51.974;4.616;2023-04-03T11:26:50;0.40;;;0.40;;
36195;SDS011;22237;51.974;4.616;2023-04-03T11:29:21;0.57;;;0.40;;
36195;SDS011;22237;51.974;4.616;2023-04-03T11:36:49;0.60;;;0.47;;
36195;SDS011;22237;51.974;4.616;2023-04-03T11:39:33;0.30;;;0.30;;
36195;SDS011;22237;51.974;4.616;2023-04-03T11:44:43;0.50;;;0.50;;
36195;SDS011;22237;51.974;4.616;2023-04-03T11:47:09;0.70;;;0.43;;
36195;SDS011;22237;51.974;4.616;2023-04-03T11:49:51;0.40;;;0.40;;
36195;SDS011;22237;51.974;4.616;2023-04-03T11:55:01;0.88;;;0.30;;
36195;SDS011;22237;51.974;4.616;2023-04-03T11:58:12;0.40;;;0.40;;
36195;SDS011;22237;51.974;4.616;2023-04-03T12:05:48;0.47;;;0.30;;
36195;SDS011;22237;51.974;4.616;2023-04-03T12:08:26;0.50;;;0.50;;
36195;SDS011;22237;51.974;4.616;2023-04-03T12:16:07;1.63;;;0.43;;
36195;SDS011;22237;51.974;4.616;2023-04-03T12:23:59;0.40;;;0.40;;
36195;SDS011;22237;51.974;4.616;2023-04-03T12:29:15;4.38;;;0.55;;
36195;SDS011;22237;51.974;4.616;2023-04-03T12:31:46;0.52;;;0.52;;
36195;SDS011;22237;51.974;4.616;2023-04-03T12:39:49;0.75;;;0.50;;
36195;SDS011;22237;51.974;4.616;2023-04-03T12:47:23;1.42;;;0.40;;
36195;SDS011;22237;51.974;4.616;2023-04-03T12:49:49;1.23;;;0.60;;
36195;SDS011;22237;51.974;4.616;2023-04-03T12:54:59;4.90;;;0.40;;
36195;SDS011;22237;51.974;4.616;2023-04-03T12:57:29;1.42;;;0.77;;
36195;SDS011;22237;51.974;4.616;2023-04-03T12:59:54;0.95;;;0.50;;
36195;SDS011;22237;51.974;4.616;2023-04-03T13:05:16;1.38;;;0.82;;
36195;SDS011;22237;51.974;4.616;2023-04-03T13:07:41;1.35;;;0.68;;
36195;SDS011;22237;51.974;4.616;2023-04-03T13:12:34;1.47;;;0.80;;
36195;SDS011;22237;51.974;4.616;2023-04-03T13:15:12;2.78;;;0.75;;
36195;SDS011;22237;51.974;4.616;2023-04-03T13:17:38;1.67;;;0.85;;
36195;SDS011;22237;51.974;4.616;2023-04-03T13:23:03;1.38;;;0.60;;
36195;SDS011;22237;51.974;4.616;2023-04-03T13:25:31;4.43;;;0.98;;
36195;SDS011;22237;51.974;4.616;2023-04-03T13:27:57;1.65;;;0.90;;
36195;SDS011;22237;51.974;4.616;2023-04-03T13:30:25;6.57;;;0.77;;
36195;SDS011;22237;51.974;4.616;2023-04-03T13:32:52;1.13;;;0.47;;
36195;SDS011;22237;51.974;4.616;2023-04-03T13:35:53;2.22;;;0.80;;
36195;SDS011;22237;51.974;4.616;2023-04-03T13:40:51;6.47;;;1.02;;
36195;SDS011;22237;51.974;4.616;2023-04-03T13:43:21;3.47;;;0.65;;
36195;SDS011;22237;51.974;4.616;2023-04-03T13:46:00;2.05;;;1.00;;
36195;SDS011;22237;51.974;4.616;2023-04-03T13:48:26;1.10;;;0.68;;
36195;SDS011;22237;51.974;4.616;2023-04-03T13:51:02;0.55;;;0.55;;
36195;SDS011;22237;51.974;4.616;2023-04-03T13:53:29;1.30;;;0.50;;
36195;SDS011;22237;51.974;4.616;2023-04-03T13:55:57;2.47;;;0.68;;
36195;SDS011;22237;51.974;4.616;2023-04-03T13:58:27;0.70;;;0.70;;
36195;SDS011;22237;51.974;4.616;2023-04-03T14:01:00;1.55;;;0.88;;
36195;SDS011;22237;51.974;4.616;2023-04-03T14:03:29;0.80;;;0.63;;
36195;SDS011;22237;51.974;4.616;2023-04-03T14:05:54;1.90;;;0.50;;
36195;SDS011;22237;51.974;4.616;2023-04-03T14:08:20;2.85;;;0.65;;
36195;SDS011;22237;51.974;4.616;2023-04-03T14:10:47;1.10;;;0.75;;
36195;SDS011;22237;51.974;4.616;2023-04-03T14:13:14;3.38;;;0.75;;
36195;SDS011;22237;51.974;4.616;2023-04-03T14:15:40;1.60;;;0.80;;
36195;SDS011;22237;51.974;4.616;2023-04-03T14:18:06;1.25;;;1.08;;
36195;SDS011;22237;51.974;4.616;2023-04-03T14:20:31;0.93;;;0.68;;
36195;SDS011;22237;51.974;4.616;2023-04-03T14:22:56;1.17;;;0.60;;
36195;SDS011;22237;51.974;4.616;2023-04-03T14:25:22;1.60;;;0.80;;
36195;SDS011;22237;51.974;4.616;2023-04-03T14:27:49;2.33;;;0.60;;
36195;SDS011;22237;51.974;4.616;2023-04-03T14:30:17;2.65;;;0.80;;
36195;SDS011;22237;51.974;4.616;2023-04-03T14:32:42;2.97;;;1.13;;
36195;SDS011;22237;51.974;4.616;2023-04-03T14:35:07;0.70;;;0.60;;
36195;SDS011;22237;51.974;4.616;2023-04-03T14:37:33;2.85;;;0.80;;
36195;SDS011;22237;51.974;4.616;2023-04-03T14:39:59;2.22;;;0.50;;
36195;SDS011;22237;51.974;4.616;2023-04-03T14:42:26;1.77;;;0.70;;
36195;SDS011;22237;51.974;4.616;2023-04-03T14:44:51;1.25;;;0.82;;
36195;SDS011;22237;51.974;4.616;2023-04-03T14:47:18;0.68;;;0.63;;
36195;SDS011;22237;51.974;4.616;2023-04-03T14:49:44;4.97;;;0.82;;
36195;SDS011;22237;51.974;4.616;2023-04-03T14:54:43;0.73;;;0.70;;
36195;SDS011;22237;51.974;4.616;2023-04-03T14:57:16;0.73;;;0.60;;
36195;SDS011;22237;51.974;4.616;2023-04-03T14:59:43;4.35;;;0.77;;
36195;SDS011;22237;51.974;4.616;2023-04-03T15:02:20;0.60;;;0.50;;
36195;SDS011;22237;51.974;4.616;2023-04-03T15:04:48;1.27;;;0.70;;
36195;SDS011;22237;51.974;4.616;2023-04-03T15:07:14;2.70;;;0.70;;
36195;SDS011;22237;51.974;4.616;2023-04-03T15:09:39;0.57;;;0.57;;
36195;SDS011;22237;51.974;4.616;2023-04-03T15:12:04;3.23;;;1.00;;
36195;SDS011;22237;51.974;4.616;2023-04-03T15:14:29;1.23;;;0.68;;
36195;SDS011;22237;51.974;4.616;2023-04-03T15:16:54;3.70;;;0.80;;
36195;SDS011;22237;51.974;4.616;2023-04-03T15:19:20;2.07;;;0.80;;
36195;SDS011;22237;51.974;4.616;2023-04-03T15:21:45;1.42;;;0.77;;
36195;SDS011;22237;51.974;4.616;2023-04-03T15:24:10;4.18;;;0.80;;
36195;SDS011;22237;51.974;4.616;2023-04-03T15:26:36;2.38;;;0.90;;
36195;SDS011;22237;51.974;4.616;2023-04-03T15:29:01;1.92;;;0.90;;
36195;SDS011;22237;51.974;4.616;2023-04-03T15:31:27;4.90;;;1.00;;
36195;SDS011;22237;51.974;4.616;2023-04-03T15:33:52;1.13;;;0.60;;
36195;SDS011;22237;51.974;4.616;2023-04-03T15:36:17;2.93;;;0.90;;
36195;SDS011;22237;51.974;4.616;2023-04-03T15:38:42;1.23;;;0.77;;
36195;SDS011;22237;51.974;4.616;2023-04-03T15:41:08;1.57;;;0.67;;
36195;SDS011;22237;51.974;4.616;2023-04-03T15:43:33;0.75;;;0.73;;
36195;SDS011;22237;51.974;4.616;2023-04-03T15:46:00;2.30;;;0.80;;
36195;SDS011;22237;51.974;4.616;2023-04-03T15:48:25;4.65;;;0.68;;
36195;SDS011;22237;51.974;4.616;2023-04-03T15:53:53;2.25;;;0.70;;
36195;SDS011;22237;51.974;4.616;2023-04-03T15:56:19;0.68;;;0.60;;
36195;SDS011;22237;51.974;4.616;2023-04-03T15:58:44;4.97;;;1.15;;
36195;SDS011;22237;51.974;4.616;2023-04-03T16:01:10;2.25;;;1.00;;
36195;SDS011;22237;51.974;4.616;2023-04-03T16:03:36;0.73;;;0.73;;
36195;SDS011;22237;51.974;4.616;2023-04-03T16:06:06;1.77;;;0.90;;
36195;SDS011;22237;51.974;4.616;2023-04-03T16:08:31;1.08;;;0.73;;
36195;SDS011;22237;51.974;4.616;2023-04-03T16:10:56;3.03;;;0.77;;
36195;SDS011;22237;51.974;4.616;2023-04-03T16:13:22;2.38;;;0.73;;
36195;SDS011;22237;51.974;4.616;2023-04-03T16:15:47;3.10;;;0.83;;
36195;SDS011;22237;51.974;4.616;2023-04-03T16:18:13;1.33;;;0.68;;
36195;SDS011;22237;51.974;4.616;2023-04-03T16:20:39;1.17;;;0.90;;
36195;SDS011;22237;51.974;4.616;2023-04-03T16:23:05;0.85;;;0.82;;
36195;SDS011;22237;51.974;4.616;2023-04-03T16:25:30;1.23;;;0.75;;
36195;SDS011;22237;51.974;4.616;2023-04-03T16:27:56;1.33;;;1.23;;
36195;SDS011;22237;51.974;4.616;2023-04-03T16:30:21;2.38;;;1.48;;
36195;SDS011;22237;51.974;4.616;2023-04-03T16:32:46;8.60;;;1.08;;
36195;SDS011;22237;51.974;4.616;2023-04-03T16:35:11;0.70;;;0.70;;
36195;SDS011;22237;51.974;4.616;2023-04-03T16:37:37;2.30;;;0.70;;
36195;SDS011;22237;51.974;4.616;2023-04-03T16:40:04;3.58;;;0.75;;
36195;SDS011;22237;51.974;4.616;2023-04-03T16:42:30;0.70;;;0.70;;
36195;SDS011;22237;51.974;4.616;2023-04-03T16:44:55;4.40;;;1.25;;
36195;SDS011;22237;51.974;4.616;2023-04-03T16:47:20;1.08;;;0.70;;
36195;SDS011;22237;51.974;4.616;2023-04-03T16:49:46;1.17;;;1.00;;
36195;SDS011;22237;51.974;4.616;2023-04-03T16:52:12;4.43;;;1.45;;
36195;SDS011;22237;51.974;4.616;2023-04-03T16:54:37;1.65;;;0.75;;
36195;SDS011;22237;51.974;4.616;2023-04-03T16:57:02;2.50;;;0.98;;
36195;SDS011;22237;51.974;4.616;2023-04-03T16:59:28;3.10;;;1.20;;